createdAt,value
2018-09-14T00:01:01.619Z,53.32
2018-09-14T00:03:29.968Z,53.83
2018-09-14T00:05:58.290Z,53.55
2018-09-14T00:08:26.599Z,52.95
2018-09-14T00:10:54.973Z,53.80
2018-09-14T00:15:50.582Z,52.96
2018-09-14T00:18:18.936Z,53.54
2018-09-14T00:20:47.380Z,53.01
2018-09-14T00:23:15.738Z,53.39
2018-09-14T00:25:44.057Z,53.69
2018-09-14T00:28:12.397Z,53.24
2018-09-14T00:30:40.803Z,53.08
2018-09-14T00:33:09.110Z,53.54
2018-09-14T00:35:37.439Z,53.86
2018-09-14T00:38:05.742Z,53.11
2018-09-14T00:40:34.063Z,53.76
2018-09-14T00:43:02.394Z,52.74
2018-09-14T00:45:30.711Z,53.19
2018-09-14T00:47:59.126Z,53.63
2018-09-14T00:50:27.422Z,53.63
2018-09-14T00:52:55.758Z,53.61
2018-09-14T00:55:24.046Z,53.90
2018-09-14T00:57:52.374Z,53.06
2018-09-14T01:00:21.191Z,53.33
2018-09-14T01:02:49.517Z,53.78
2018-09-14T01:05:17.846Z,52.78
2018-09-14T01:07:46.131Z,53.89
2018-09-14T01:10:14.447Z,53.80
2018-09-14T01:12:42.732Z,53.16
2018-09-14T01:15:10.998Z,53.06
2018-09-14T01:17:39.302Z,53.10
2018-09-14T01:20:07.645Z,53.18
2018-09-14T01:22:35.938Z,53.05
2018-09-14T01:25:04.287Z,53.04
2018-09-14T01:27:32.572Z,52.95
2018-09-14T01:30:00.862Z,53.02
2018-09-14T01:32:29.159Z,53.17
2018-09-14T01:34:57.442Z,53.04
2018-09-14T01:37:25.771Z,53.99
2018-09-14T01:39:54.993Z,53.10
2018-09-14T01:42:23.266Z,53.92
2018-09-14T01:44:51.546Z,53.95
2018-09-14T01:47:19.874Z,53.18
2018-09-14T01:49:48.163Z,53.98
2018-09-14T01:52:16.510Z,53.11
2018-09-14T01:54:44.775Z,53.04
2018-09-14T01:57:13.066Z,53.34
2018-09-14T01:59:41.410Z,53.28
2018-09-14T02:02:09.695Z,53.21
2018-09-14T02:04:38.010Z,53.14
2018-09-14T02:07:06.306Z,53.99
2018-09-14T02:09:34.603Z,54.00
2018-09-14T02:12:02.882Z,53.15
2018-09-14T02:14:31.159Z,53.45
2018-09-14T02:16:59.531Z,53.83
2018-09-14T02:19:28.546Z,53.09
2018-09-14T02:21:56.842Z,53.98
2018-09-14T02:24:25.148Z,54.16
2018-09-14T02:26:53.414Z,53.47
2018-09-14T02:29:21.733Z,53.16
2018-09-14T02:31:50.063Z,53.91
2018-09-14T02:34:18.390Z,53.14
2018-09-14T02:36:46.677Z,53.13
2018-09-14T02:39:14.963Z,53.45
2018-09-14T02:41:43.224Z,53.90
2018-09-14T02:44:11.564Z,53.94
2018-09-14T02:46:39.858Z,53.17
2018-09-14T02:49:08.195Z,53.97
2018-09-14T02:51:36.472Z,53.46
2018-09-14T02:54:04.782Z,53.97
2018-09-14T02:56:33.062Z,53.54
2018-09-14T02:59:01.849Z,53.28
2018-09-14T03:01:30.127Z,53.46
2018-09-14T03:03:58.430Z,53.26
2018-09-14T03:06:26.754Z,53.88
2018-09-14T03:08:55.070Z,53.28
2018-09-14T03:11:23.419Z,53.13
2018-09-14T03:13:51.714Z,53.16
2018-09-14T03:16:20.071Z,53.34
2018-09-14T03:18:48.373Z,52.88
2018-09-14T03:21:16.641Z,53.13
2018-09-14T03:23:45.199Z,53.73
2018-09-14T03:26:13.734Z,53.09
2018-09-14T03:28:42.058Z,52.99
2018-09-14T03:31:10.373Z,53.17
2018-09-14T03:33:38.689Z,53.25
2018-09-14T03:36:07.222Z,53.87
2018-09-14T03:38:35.523Z,53.95
2018-09-14T03:41:03.879Z,53.25
2018-09-14T03:43:32.197Z,53.83
2018-09-14T03:46:00.487Z,53.80
2018-09-14T03:48:28.783Z,53.83
2018-09-14T03:50:57.059Z,54.27
2018-09-14T03:53:25.427Z,53.21
2018-09-14T03:55:53.702Z,53.06
2018-09-14T03:58:21.986Z,53.73
2018-09-14T04:00:50.261Z,53.38
2018-09-14T04:03:19.173Z,53.35
2018-09-14T04:05:47.566Z,54.15
2018-09-14T04:08:15.874Z,54.15
2018-09-14T04:10:44.158Z,53.79
2018-09-14T04:13:12.510Z,54.55
2018-09-14T04:15:40.794Z,54.45
2018-09-14T04:18:09.062Z,54.41
2018-09-14T04:20:37.395Z,53.62
2018-09-14T04:23:05.708Z,54.00
2018-09-14T04:25:33.994Z,54.30
2018-09-14T04:28:02.261Z,54.40
2018-09-14T04:30:30.638Z,54.63
2018-09-14T04:32:58.966Z,54.29
2018-09-14T04:35:27.282Z,54.39
2018-09-14T04:37:55.668Z,53.73
2018-09-14T04:40:23.935Z,54.07
2018-09-14T04:42:52.294Z,53.98
2018-09-14T04:45:20.574Z,54.24
2018-09-14T04:47:48.886Z,54.22
2018-09-14T04:50:17.250Z,54.32
2018-09-14T04:52:45.530Z,54.44
2018-09-14T04:55:13.834Z,53.92
2018-09-14T04:57:42.121Z,54.45
2018-09-14T05:00:10.447Z,53.88
2018-09-14T05:02:39.634Z,54.09
2018-09-14T05:05:07.998Z,54.13
2018-09-14T05:07:36.319Z,53.91
2018-09-14T05:10:04.719Z,54.40
2018-09-14T05:12:33.033Z,54.89
2018-09-14T05:15:01.370Z,54.92
2018-09-14T05:17:29.690Z,54.66
2018-09-14T05:19:58.014Z,54.88
2018-09-14T05:22:26.403Z,54.21
2018-09-14T05:24:54.739Z,53.71
2018-09-14T05:27:23.066Z,54.09
2018-09-14T05:29:51.408Z,53.58
2018-09-14T05:32:19.741Z,53.83
2018-09-14T05:34:48.117Z,53.00
2018-09-14T05:37:16.469Z,53.49
2018-09-14T05:39:44.858Z,53.40
2018-09-14T05:42:13.262Z,52.46
2018-09-14T05:44:41.595Z,52.92
2018-09-14T05:47:09.955Z,52.85
2018-09-14T05:49:38.258Z,52.64
2018-09-14T05:52:06.583Z,52.26
2018-09-14T05:54:34.984Z,51.37
2018-09-14T05:57:03.223Z,51.80
2018-09-14T05:59:31.515Z,50.99
2018-09-14T06:01:59.970Z,51.18
2018-09-14T06:04:28.271Z,50.27
2018-09-14T06:06:56.557Z,51.79
2018-09-14T06:09:24.870Z,50.36
2018-09-14T06:11:53.175Z,50.98
2018-09-14T06:14:21.478Z,50.21
2018-09-14T06:16:49.784Z,49.74
2018-09-14T06:19:18.271Z,50.51
2018-09-14T06:21:46.584Z,49.87
2018-09-14T06:24:14.886Z,49.03
2018-09-14T06:26:43.194Z,49.58
2018-09-14T06:29:11.510Z,49.06
2018-09-14T06:31:39.838Z,49.11
2018-09-14T06:34:08.110Z,48.47
2018-09-14T06:36:36.402Z,49.20
2018-09-14T06:39:07.398Z,49.17
2018-09-14T06:41:35.726Z,47.52
2018-09-14T06:44:04.127Z,48.75
2018-09-14T06:46:32.456Z,48.71
2018-09-14T06:49:00.729Z,48.95
2018-09-14T06:51:29.137Z,48.16
2018-09-14T06:53:57.415Z,48.10
2018-09-14T06:56:25.706Z,49.04
2018-09-14T06:58:54.110Z,48.22
2018-09-14T07:01:22.426Z,48.22
2018-09-14T07:03:50.721Z,48.79
2018-09-14T07:06:19.056Z,48.73
2018-09-14T07:08:47.377Z,48.20
2018-09-14T07:11:16.051Z,48.47
2018-09-14T07:13:44.359Z,48.16
2018-09-14T07:16:12.690Z,45.82
2018-09-14T07:18:41.026Z,44.96
2018-09-14T07:21:09.467Z,44.70
2018-09-14T07:23:37.769Z,45.30
2018-09-14T07:26:06.087Z,44.28
2018-09-14T07:28:34.403Z,44.40
2018-09-14T07:31:02.762Z,44.75
2018-09-14T07:33:31.067Z,44.81
2018-09-14T07:35:59.423Z,44.74
2018-09-14T07:38:27.702Z,45.29
2018-09-14T07:40:56.070Z,45.79
2018-09-14T07:43:24.419Z,45.41
2018-09-14T07:45:52.730Z,45.89
2018-09-14T07:48:21.391Z,45.63
2018-09-14T07:50:49.650Z,45.57
2018-09-14T07:53:17.942Z,45.70
2018-09-14T07:55:46.274Z,45.83
2018-09-14T07:58:14.591Z,45.73
2018-09-14T08:00:42.973Z,46.20
2018-09-14T08:03:11.299Z,46.59
2018-09-14T08:05:39.647Z,46.72
2018-09-14T08:08:07.948Z,45.95
2018-09-14T08:10:36.427Z,46.19
2018-09-14T08:13:04.781Z,46.69
2018-09-14T08:15:33.054Z,46.42
2018-09-14T08:18:01.370Z,46.25
2018-09-14T08:20:29.847Z,46.25
2018-09-14T08:22:58.235Z,46.06
2018-09-14T08:25:26.538Z,46.36
2018-09-14T08:27:54.867Z,46.11
2018-09-14T08:30:23.506Z,46.34
2018-09-14T08:32:51.789Z,45.96
2018-09-14T08:35:20.095Z,45.98
2018-09-14T08:37:48.505Z,46.83
2018-09-14T08:40:16.857Z,46.47
2018-09-14T08:42:45.183Z,46.08
2018-09-14T08:45:13.467Z,46.96
2018-09-14T08:47:41.836Z,46.91
2018-09-14T08:50:10.191Z,46.93
2018-09-14T08:52:38.514Z,47.65
2018-09-14T08:55:06.826Z,46.92
2018-09-14T08:57:35.138Z,47.86
2018-09-14T09:00:03.438Z,47.91
2018-09-14T09:02:31.806Z,47.28
2018-09-14T09:05:00.181Z,48.05
2018-09-14T09:07:28.518Z,47.72
2018-09-14T09:09:56.849Z,48.02
2018-09-14T09:12:26.154Z,47.95
2018-09-14T09:14:54.469Z,47.75
2018-09-14T09:17:22.775Z,46.96
2018-09-14T09:19:51.105Z,46.74
2018-09-14T09:22:19.422Z,47.32
2018-09-14T09:24:47.715Z,46.99
2018-09-14T09:27:16.015Z,46.71
2018-09-14T09:29:44.318Z,45.96
2018-09-14T09:32:12.622Z,46.52
2018-09-14T09:34:40.913Z,46.47
2018-09-14T09:37:09.235Z,46.60
2018-09-14T09:39:37.531Z,46.36
2018-09-14T09:42:05.862Z,46.36
2018-09-14T09:44:34.159Z,46.47
2018-09-14T09:47:02.557Z,46.00
2018-09-14T09:49:30.844Z,45.29
2018-09-14T09:51:59.210Z,45.16
2018-09-14T09:54:27.519Z,45.22
2018-09-14T09:56:55.841Z,44.18
2018-09-14T09:59:24.158Z,44.16
2018-09-14T10:01:57.706Z,44.04
2018-09-14T10:04:31.357Z,43.71
2018-09-14T10:06:59.690Z,42.80
2018-09-14T10:09:28.049Z,42.89
2018-09-14T10:11:56.398Z,41.70
2018-09-14T10:14:24.876Z,40.98
2018-09-14T10:16:53.231Z,40.38
2018-09-14T10:19:21.574Z,40.39
2018-09-14T10:21:49.973Z,39.52
2018-09-14T10:24:18.227Z,38.72
2018-09-14T10:26:46.559Z,38.61
2018-09-14T10:29:14.867Z,37.50
2018-09-14T10:31:43.167Z,37.42
2018-09-14T10:34:11.495Z,37.00
2018-09-14T10:36:39.884Z,36.40
2018-09-14T10:39:09.766Z,35.21
2018-09-14T10:41:38.100Z,35.32
2018-09-14T10:44:06.491Z,33.98
2018-09-14T10:46:34.805Z,34.91
2018-09-14T10:49:03.149Z,37.30
2018-09-14T10:51:31.607Z,37.40
2018-09-14T10:53:59.983Z,34.72
2018-09-14T10:56:28.298Z,36.20
2018-09-14T10:58:56.615Z,38.12
2018-09-14T11:01:24.906Z,39.66
2018-09-14T11:03:53.237Z,40.61
2018-09-14T11:06:21.566Z,41.23
2018-09-14T11:08:49.884Z,42.36
2018-09-14T11:11:18.174Z,41.64
2018-09-14T11:13:46.590Z,38.98
2018-09-14T11:16:14.857Z,39.92
2018-09-14T11:18:43.281Z,40.69
2018-09-14T11:21:11.453Z,39.98
2018-09-14T11:23:39.786Z,36.82
2018-09-14T11:26:08.119Z,36.08
2018-09-14T11:28:36.622Z,33.82
2018-09-14T11:31:05.463Z,33.55
2018-09-14T11:33:33.771Z,35.56
2018-09-14T11:36:02.062Z,38.31
2018-09-14T11:38:30.535Z,39.13
2018-09-14T11:40:58.778Z,40.59
2018-09-14T11:43:27.236Z,40.97
2018-09-14T11:45:55.579Z,41.42
2018-09-14T11:48:23.862Z,41.33
2018-09-14T11:50:52.183Z,38.93
2018-09-14T11:53:20.539Z,37.04
2018-09-14T11:55:48.841Z,36.33
2018-09-14T11:58:17.159Z,36.71
2018-09-14T12:00:45.553Z,36.93
2018-09-14T12:03:13.898Z,36.62
2018-09-14T12:05:42.209Z,36.90
2018-09-14T12:08:10.583Z,37.09
2018-09-14T12:10:38.875Z,37.56
2018-09-14T12:13:07.167Z,37.54
2018-09-14T12:15:35.470Z,38.33
2018-09-14T12:18:03.743Z,38.56
2018-09-14T12:20:32.138Z,38.31
2018-09-14T12:23:00.475Z,39.29
2018-09-14T12:25:28.796Z,39.50
2018-09-14T12:28:00.134Z,40.28
2018-09-14T12:30:28.457Z,39.35
2018-09-14T12:32:56.786Z,40.46
2018-09-14T12:35:25.107Z,41.42
2018-09-14T12:37:53.434Z,40.92
2018-09-14T12:40:21.795Z,41.24
2018-09-14T12:42:50.070Z,41.20
2018-09-14T12:45:18.407Z,41.40
2018-09-14T12:47:46.767Z,41.56
2018-09-14T12:50:15.071Z,42.08
2018-09-14T12:52:43.378Z,41.65
2018-09-14T12:55:11.707Z,42.22
2018-09-14T12:57:40.070Z,42.33
2018-09-14T13:00:08.791Z,42.28
2018-09-14T13:02:37.154Z,42.30
2018-09-14T13:05:05.618Z,42.29
2018-09-14T13:07:33.911Z,42.94
2018-09-14T13:10:02.211Z,42.24
2018-09-14T13:12:30.486Z,42.71
2018-09-14T13:14:58.905Z,42.64
2018-09-14T13:17:27.114Z,42.30
2018-09-14T13:19:55.566Z,42.43
2018-09-14T13:22:23.975Z,42.43
2018-09-14T13:24:52.371Z,43.26
2018-09-14T13:27:20.675Z,42.50
2018-09-14T13:29:49.002Z,43.34
2018-09-14T13:32:17.358Z,42.68
2018-09-14T13:34:45.606Z,42.83
2018-09-14T13:37:14.434Z,44.24
2018-09-14T13:39:42.731Z,42.91
2018-09-14T13:42:11.018Z,43.67
2018-09-14T13:44:39.418Z,42.71
2018-09-14T13:47:07.759Z,42.76
2018-09-14T13:49:36.051Z,43.84
2018-09-14T13:52:04.373Z,44.05
2018-09-14T13:54:32.695Z,44.32
2018-09-14T13:57:01.006Z,43.58
2018-09-14T13:59:29.303Z,44.38
2018-09-14T14:01:57.638Z,44.75
2018-09-14T14:04:26.032Z,43.92
2018-09-14T14:06:54.350Z,44.49
2018-09-14T14:09:22.695Z,43.69
2018-09-14T14:11:50.988Z,43.80
2018-09-14T14:14:19.293Z,43.78
2018-09-14T14:16:47.644Z,42.12
2018-09-14T14:19:16.807Z,39.87
2018-09-14T14:21:45.126Z,39.68
2018-09-14T14:24:13.418Z,41.13
2018-09-14T14:26:41.728Z,41.71
2018-09-14T14:29:10.046Z,41.58
2018-09-14T14:31:38.351Z,40.59
2018-09-14T14:34:06.694Z,41.78
2018-09-14T14:36:35.024Z,42.64
2018-09-14T14:39:03.422Z,40.86
2018-09-14T14:41:31.900Z,40.45
2018-09-14T14:44:00.158Z,39.81
2018-09-14T14:46:28.486Z,40.98
2018-09-14T14:48:56.785Z,40.55
2018-09-14T14:51:25.091Z,39.67
2018-09-14T14:53:53.379Z,40.27
2018-09-14T14:56:21.691Z,40.80
2018-09-14T14:58:50.010Z,40.91
2018-09-14T15:01:18.342Z,41.12
2018-09-14T15:03:46.658Z,41.10
2018-09-14T15:06:15.082Z,40.97
2018-09-14T15:08:43.438Z,41.60
2018-09-14T15:11:11.825Z,41.41
2018-09-14T15:13:40.211Z,40.79
2018-09-14T15:16:08.510Z,41.68
2018-09-14T15:18:36.814Z,41.62
2018-09-14T15:21:05.155Z,41.83
2018-09-14T15:23:33.508Z,41.56
2018-09-14T15:26:01.862Z,41.30
2018-09-14T15:28:30.143Z,41.73
2018-09-14T15:30:58.502Z,40.90
2018-09-14T15:33:26.809Z,41.82
2018-09-14T15:35:55.462Z,41.77
2018-09-14T15:38:23.781Z,41.32
2018-09-14T15:43:37.510Z,40.89
2018-09-14T15:46:05.858Z,41.73
2018-09-14T15:48:34.154Z,41.01
2018-09-14T15:51:02.522Z,41.10
2018-09-14T15:53:30.822Z,41.40
2018-09-14T15:55:59.254Z,41.12
2018-09-14T15:58:27.607Z,40.97
2018-09-14T16:00:55.993Z,41.26
2018-09-14T16:03:24.326Z,41.42
2018-09-14T16:05:52.810Z,41.89
2018-09-14T16:08:21.134Z,41.16
2018-09-14T16:10:49.499Z,41.91
2018-09-14T16:13:17.818Z,41.50
2018-09-14T16:15:46.187Z,41.71
2018-09-14T16:18:14.494Z,41.88
2018-09-14T16:20:42.946Z,41.91
2018-09-14T16:23:11.244Z,41.40
2018-09-14T16:25:39.584Z,41.10
2018-09-14T16:28:07.878Z,41.85
2018-09-14T16:30:36.263Z,41.70
2018-09-14T16:33:04.635Z,41.30
2018-09-14T16:35:32.919Z,41.74
2018-09-14T16:38:01.249Z,41.20
2018-09-14T16:40:29.571Z,41.90
2018-09-14T16:42:57.969Z,42.10
2018-09-14T16:45:27.059Z,42.55
2018-09-14T16:47:55.389Z,41.92
2018-09-14T16:50:23.707Z,41.92
2018-09-14T16:52:52.039Z,43.03
2018-09-14T16:55:20.386Z,42.59
2018-09-14T16:57:48.723Z,42.35
2018-09-14T17:00:17.018Z,41.41
2018-09-14T17:02:45.448Z,41.38
2018-09-14T17:05:13.702Z,41.97
2018-09-14T17:07:42.051Z,41.96
2018-09-14T17:10:10.404Z,41.47
2018-09-14T17:12:38.747Z,40.85
2018-09-14T17:15:07.532Z,41.37
2018-09-14T17:17:35.986Z,40.73
2018-09-14T17:20:04.453Z,40.40
2018-09-14T17:22:32.754Z,41.56
2018-09-14T17:25:01.092Z,41.51
2018-09-14T17:27:29.460Z,41.52
2018-09-14T17:29:57.718Z,41.12
2018-09-14T17:32:26.042Z,40.93
2018-09-14T17:34:54.373Z,41.66
2018-09-14T17:37:22.729Z,40.90
2018-09-14T17:39:51.075Z,41.33
2018-09-14T17:42:19.386Z,42.25
2018-09-14T17:44:47.691Z,41.04
2018-09-14T17:47:16.023Z,41.00
2018-09-14T17:49:44.375Z,41.78
2018-09-14T17:52:12.742Z,41.63
2018-09-14T17:54:41.087Z,41.22
2018-09-14T17:57:09.422Z,40.78
2018-09-14T17:59:37.726Z,40.18
2018-09-14T18:02:06.098Z,41.34
2018-09-14T18:04:34.647Z,41.47
2018-09-14T18:07:02.990Z,41.50
2018-09-14T18:09:32.122Z,41.45
2018-09-14T18:12:00.487Z,41.41
2018-09-14T18:14:28.789Z,41.16
2018-09-14T18:16:57.310Z,41.08
2018-09-14T18:19:25.647Z,41.20
2018-09-14T18:21:54.010Z,41.97
2018-09-14T18:24:23.062Z,41.00
2018-09-14T18:26:51.410Z,41.90
2018-09-14T18:29:19.816Z,41.01
2018-09-14T18:31:48.134Z,41.13
2018-09-14T18:34:16.527Z,42.18
2018-09-14T18:36:44.851Z,42.14
2018-09-14T18:39:13.478Z,41.81
2018-09-14T18:41:41.991Z,42.13
2018-09-14T18:44:10.421Z,42.33
2018-09-14T18:46:38.899Z,42.73
2018-09-14T18:49:07.720Z,42.12
2018-09-14T18:51:36.049Z,42.86
2018-09-14T18:54:04.515Z,42.31
2018-09-14T18:56:32.861Z,42.07
2018-09-14T18:59:01.334Z,42.98
2018-09-14T19:01:29.638Z,43.20
2018-09-14T19:03:57.985Z,43.22
2018-09-14T19:06:26.317Z,43.10
2018-09-14T19:08:54.630Z,42.76
2018-09-14T19:11:22.950Z,42.58
2018-09-14T19:13:51.259Z,43.31
2018-09-14T19:16:19.655Z,42.49
2018-09-14T19:18:48.015Z,42.65
2018-09-14T19:21:16.417Z,43.33
2018-09-14T19:23:44.768Z,43.42
2018-09-14T19:26:13.054Z,43.19
2018-09-14T19:28:41.394Z,42.86
2018-09-14T19:31:09.717Z,42.70
2018-09-14T19:33:38.566Z,42.71
2018-09-14T19:36:06.874Z,42.77
2018-09-14T19:38:35.321Z,43.71
2018-09-14T19:41:03.524Z,42.84
2018-09-14T19:43:31.846Z,43.24
2018-09-14T19:46:00.229Z,42.99
2018-09-14T19:48:28.555Z,43.82
2018-09-14T19:50:56.846Z,43.23
2018-09-14T19:53:25.162Z,43.41
2018-09-14T19:55:53.489Z,43.46
2018-09-14T19:58:21.799Z,43.84
2018-09-14T20:00:50.104Z,43.57
2018-09-14T20:03:18.450Z,43.61
2018-09-14T20:05:46.786Z,43.27
2018-09-14T20:08:15.110Z,43.19
2018-09-14T20:10:43.440Z,43.33
2018-09-14T20:13:11.754Z,43.92
2018-09-14T20:15:40.031Z,43.40
2018-09-14T20:18:08.701Z,43.33
2018-09-14T20:20:37.074Z,43.57
2018-09-14T20:23:05.365Z,43.33
2018-09-14T20:25:33.680Z,43.89
2018-09-14T20:28:02.009Z,43.79
2018-09-14T20:30:30.410Z,43.99
2018-09-14T20:32:58.683Z,43.66
2018-09-14T20:35:27.058Z,43.67
2018-09-14T20:37:55.378Z,43.88
2018-09-14T20:40:23.694Z,43.49
2018-09-14T20:42:52.014Z,44.14
2018-09-14T20:45:20.333Z,43.51
2018-09-14T20:47:48.646Z,43.60
2018-09-14T20:50:16.991Z,43.46
2018-09-14T20:52:45.326Z,44.28
2018-09-14T20:55:13.647Z,43.58
2018-09-14T20:57:41.955Z,44.04
2018-09-14T21:00:10.310Z,43.60
2018-09-14T21:02:38.617Z,43.71
2018-09-14T21:05:07.124Z,43.57
2018-09-14T21:07:35.459Z,44.30
2018-09-14T21:10:03.799Z,44.05
2018-09-14T21:12:32.127Z,44.40
2018-09-14T21:15:00.504Z,44.41
2018-09-14T21:17:28.814Z,43.55
2018-09-14T21:19:57.106Z,44.33
2018-09-14T21:22:25.405Z,44.49
2018-09-14T21:24:53.726Z,43.90
2018-09-14T21:27:22.052Z,44.11
2018-09-14T21:29:50.714Z,44.30
2018-09-14T21:32:19.079Z,44.05
2018-09-14T21:34:47.482Z,43.63
2018-09-14T21:37:16.214Z,43.64
2018-09-14T21:39:44.538Z,44.41
2018-09-14T21:42:12.849Z,44.45
2018-09-14T21:44:47.634Z,44.21
2018-09-14T21:47:16.791Z,43.72
2018-09-14T21:49:45.106Z,43.90
2018-09-14T21:52:13.478Z,44.24
2018-09-14T21:54:41.818Z,44.57
2018-09-14T21:57:10.124Z,43.90
2018-09-14T21:59:38.585Z,44.16
2018-09-14T22:02:06.918Z,43.91
2018-09-14T22:04:35.260Z,44.53
2018-09-14T22:07:03.679Z,44.62
2018-09-14T22:09:32.002Z,43.59
2018-09-14T22:12:00.311Z,44.74
2018-09-14T22:14:28.714Z,44.00
2018-09-14T22:16:57.030Z,44.75
2018-09-14T22:19:25.367Z,44.11
2018-09-14T22:21:53.688Z,44.55
2018-09-14T22:24:21.982Z,43.96
2018-09-14T22:26:50.271Z,44.30
2018-09-14T22:29:18.875Z,43.95
2018-09-14T22:31:47.195Z,44.72
2018-09-14T22:34:15.514Z,44.38
2018-09-14T22:36:43.890Z,44.82
2018-09-14T22:39:13.439Z,44.06
2018-09-14T22:41:41.802Z,44.22
2018-09-14T22:44:10.302Z,44.05
2018-09-14T22:46:38.718Z,44.91
2018-09-14T22:49:07.039Z,44.14
2018-09-14T22:51:35.357Z,44.27
2018-09-14T22:54:03.662Z,44.54
2018-09-14T22:56:32.034Z,44.28
2018-09-14T22:59:00.383Z,44.22
2018-09-14T23:01:28.682Z,44.74
2018-09-14T23:03:57.002Z,44.84
2018-09-14T23:06:25.309Z,44.54
2018-09-14T23:08:53.650Z,44.89
2018-09-14T23:11:21.982Z,45.06
2018-09-14T23:13:50.393Z,44.62
2018-09-14T23:16:18.698Z,44.31
2018-09-14T23:18:47.039Z,45.22
2018-09-14T23:21:15.346Z,45.19
2018-09-14T23:23:43.706Z,45.13
2018-09-14T23:26:14.195Z,44.96
2018-09-14T23:28:42.686Z,44.64
2018-09-14T23:31:11.094Z,44.53
2018-09-14T23:33:39.423Z,44.38
2018-09-14T23:36:07.842Z,45.18
2018-09-14T23:38:36.229Z,44.35
2018-09-14T23:41:04.565Z,44.96
2018-09-14T23:43:32.886Z,44.63
2018-09-14T23:46:01.221Z,44.53
2018-09-14T23:48:29.565Z,45.32
2018-09-14T23:50:57.870Z,45.34
2018-09-14T23:53:26.170Z,45.32
2018-09-14T23:55:54.562Z,45.25
2018-09-14T23:58:22.870Z,44.41
